createdAt,value
2018-07-25T00:00:35.526Z,70.97
2018-07-25T00:03:04.751Z,71.06
2018-07-25T00:05:33.816Z,70.66
2018-07-25T00:08:03.393Z,70.51
2018-07-25T00:10:37.671Z,70.89
2018-07-25T00:13:07.117Z,70.57
2018-07-25T00:15:35.865Z,70.49
2018-07-25T00:18:04.962Z,70.58
2018-07-25T00:20:33.989Z,71.15
2018-07-25T00:23:02.914Z,70.81
2018-07-25T00:25:32.232Z,71.26
2018-07-25T00:28:01.058Z,70.81
2018-07-25T00:30:30.334Z,71.24
2018-07-25T00:32:59.368Z,70.62
2018-07-25T00:35:28.113Z,71.05
2018-07-25T00:37:57.187Z,70.53
2018-07-25T00:40:26.293Z,70.60
2018-07-25T00:42:55.486Z,71.10
2018-07-25T00:45:24.591Z,71.18
2018-07-25T00:47:53.366Z,70.99
2018-07-25T00:50:22.796Z,70.50
2018-07-25T00:52:51.989Z,70.96
2018-07-25T00:55:20.995Z,70.91
2018-07-25T00:57:49.751Z,70.73
2018-07-25T01:00:19.054Z,71.58
2018-07-25T01:02:48.394Z,71.53
2018-07-25T01:05:17.838Z,71.12
2018-07-25T01:07:47.221Z,71.70
2018-07-25T01:10:16.300Z,71.11
2018-07-25T01:12:45.293Z,71.67
2018-07-25T01:15:14.588Z,71.49
2018-07-25T01:17:43.365Z,70.87
2018-07-25T01:20:12.537Z,70.62
2018-07-25T01:22:41.818Z,71.08
2018-07-25T01:25:10.562Z,70.23
2018-07-25T01:27:39.789Z,70.42
2018-07-25T01:30:08.520Z,69.99
2018-07-25T01:32:37.231Z,70.00
2018-07-25T01:35:06.410Z,70.21
2018-07-25T01:37:35.230Z,70.62
2018-07-25T01:40:03.992Z,70.50
2018-07-25T01:42:32.995Z,70.59
2018-07-25T01:45:01.709Z,70.34
2018-07-25T01:47:30.771Z,70.60
2018-07-25T01:49:59.591Z,69.81
2018-07-25T01:52:29.202Z,70.24
2018-07-25T01:54:58.296Z,70.13
2018-07-25T01:57:27.277Z,69.79
2018-07-25T01:59:56.334Z,69.42
2018-07-25T02:02:25.047Z,70.00
2018-07-25T02:04:54.025Z,69.66
2018-07-25T02:07:22.816Z,69.79
2018-07-25T02:09:52.082Z,69.88
2018-07-25T02:12:21.210Z,69.41
2018-07-25T02:14:50.263Z,69.73
2018-07-25T02:17:19.602Z,69.43
2018-07-25T02:19:48.708Z,69.31
2018-07-25T02:22:17.866Z,69.07
2018-07-25T02:24:47.167Z,69.00
2018-07-25T02:27:16.281Z,69.12
2018-07-25T02:29:45.681Z,68.96
2018-07-25T02:32:14.419Z,69.46
2018-07-25T02:34:44.098Z,69.55
2018-07-25T02:37:13.020Z,69.71
2018-07-25T02:39:41.893Z,69.71
2018-07-25T02:42:10.701Z,69.20
2018-07-25T02:44:39.553Z,69.59
2018-07-25T02:47:08.365Z,69.26
2018-07-25T02:49:37.113Z,69.12
2018-07-25T02:52:06.399Z,69.02
2018-07-25T02:54:35.469Z,68.97
2018-07-25T02:57:04.242Z,69.08
2018-07-25T02:59:33.647Z,69.58
2018-07-25T03:02:02.375Z,69.62
2018-07-25T03:04:31.463Z,69.79
2018-07-25T03:07:00.271Z,69.49
2018-07-25T03:09:29.107Z,69.48
2018-07-25T03:11:58.616Z,70.18
2018-07-25T03:14:27.469Z,70.76
2018-07-25T03:16:56.399Z,70.59
2018-07-25T03:19:25.742Z,71.29
2018-07-25T03:21:54.732Z,71.32
2018-07-25T03:24:24.215Z,71.93
2018-07-25T03:26:52.928Z,71.36
2018-07-25T03:29:21.825Z,71.83
2018-07-25T03:31:50.955Z,71.60
2018-07-25T03:34:19.745Z,71.79
2018-07-25T03:36:48.768Z,72.55
2018-07-25T03:39:17.544Z,72.74
2018-07-25T03:41:46.545Z,72.36
2018-07-25T03:44:15.403Z,72.76
2018-07-25T03:46:44.203Z,73.26
2018-07-25T03:49:13.081Z,73.53
2018-07-25T03:51:41.917Z,73.55
2018-07-25T03:54:10.753Z,73.49
2018-07-25T03:56:40.127Z,73.62
2018-07-25T03:59:09.292Z,74.60
2018-07-25T04:01:38.455Z,74.30
2018-07-25T04:04:07.610Z,74.40
2018-07-25T04:06:37.216Z,74.96
2018-07-25T04:09:09.299Z,74.46
2018-07-25T04:11:38.592Z,75.27
2018-07-25T04:14:07.470Z,74.74
2018-07-25T04:16:36.870Z,75.02
2018-07-25T04:19:05.914Z,75.03
2018-07-25T04:21:35.313Z,74.86
2018-07-25T04:24:04.321Z,75.25
2018-07-25T04:26:34.101Z,75.14
2018-07-25T04:29:03.378Z,75.49
2018-07-25T04:31:32.775Z,75.08
2018-07-25T04:34:01.696Z,75.29
2018-07-25T04:36:30.714Z,75.59
2018-07-25T04:38:59.962Z,75.98
2018-07-25T04:41:28.889Z,76.42
2018-07-25T04:43:57.912Z,76.85
2018-07-25T04:46:27.510Z,76.95
2018-07-25T04:48:56.100Z,78.35
2018-07-25T04:51:25.346Z,78.68
2018-07-25T04:53:54.655Z,79.35
2018-07-25T04:56:23.771Z,79.86
2018-07-25T04:58:53.231Z,80.06
2018-07-25T05:01:21.991Z,79.74
2018-07-25T05:03:51.090Z,80.39
2018-07-25T05:06:19.989Z,80.96
2018-07-25T05:08:48.931Z,80.65
2018-07-25T05:11:18.002Z,81.59
2018-07-25T05:13:47.300Z,81.50
2018-07-25T05:16:16.244Z,82.05
2018-07-25T05:18:45.551Z,82.34
2018-07-25T05:21:15.277Z,82.79
2018-07-25T05:23:45.976Z,83.35
2018-07-25T05:26:14.912Z,83.12
2018-07-25T05:28:44.365Z,83.72
2018-07-25T05:31:15.987Z,83.53
2018-07-25T05:33:47.682Z,83.31
2018-07-25T05:36:17.525Z,82.89
2018-07-25T05:38:46.437Z,82.45
2018-07-25T05:41:15.707Z,82.03
2018-07-25T05:43:45.091Z,82.24
2018-07-25T05:46:19.178Z,81.83
2018-07-25T05:48:48.342Z,82.15
2018-07-25T05:51:17.287Z,81.84
2018-07-25T05:53:46.324Z,80.71
2018-07-25T05:56:16.353Z,81.15
2018-07-25T05:58:45.894Z,80.11
2018-07-25T06:01:14.695Z,79.48
2018-07-25T06:03:43.668Z,78.99
2018-07-25T06:06:12.509Z,78.37
2018-07-25T06:08:41.338Z,77.57
2018-07-25T06:11:10.507Z,77.41
2018-07-25T06:13:40.872Z,77.04
2018-07-25T06:16:09.846Z,76.53
2018-07-25T06:18:39.266Z,75.79
2018-07-25T06:21:08.010Z,76.37
2018-07-25T06:23:36.761Z,75.62
2018-07-25T06:26:06.167Z,75.28
2018-07-25T06:28:35.506Z,74.20
2018-07-25T06:31:04.234Z,74.06
2018-07-25T06:33:33.326Z,74.09
2018-07-25T06:36:02.506Z,73.05
2018-07-25T06:38:31.279Z,72.41
2018-07-25T06:41:00.255Z,72.41
2018-07-25T06:43:28.982Z,72.35
2018-07-25T06:45:58.235Z,71.68
2018-07-25T06:48:27.466Z,71.80
2018-07-25T06:50:56.730Z,70.37
2018-07-25T06:53:26.061Z,70.57
2018-07-25T06:55:55.055Z,69.52
2018-07-25T06:58:24.173Z,69.59
2018-07-25T07:00:52.919Z,68.30
2018-07-25T07:03:21.721Z,67.92
2018-07-25T07:05:50.748Z,67.22
2018-07-25T07:08:19.986Z,66.29
2018-07-25T07:10:48.997Z,65.61
2018-07-25T07:13:17.791Z,65.92
2018-07-25T07:15:47.154Z,65.31
2018-07-25T07:18:16.220Z,65.34
2018-07-25T07:20:45.290Z,65.82
2018-07-25T07:23:14.304Z,65.11
2018-07-25T07:25:43.135Z,65.57
2018-07-25T07:28:12.158Z,65.50
2018-07-25T07:30:40.945Z,65.40
2018-07-25T07:33:10.206Z,64.02
2018-07-25T07:35:39.262Z,64.91
2018-07-25T07:38:08.665Z,64.71
2018-07-25T07:40:38.294Z,63.94
2018-07-25T07:43:07.839Z,64.44
2018-07-25T07:45:37.562Z,64.69
2018-07-25T07:48:06.924Z,65.02
2018-07-25T07:50:35.655Z,65.62
2018-07-25T07:53:04.691Z,66.02
2018-07-25T07:55:34.152Z,64.17
2018-07-25T07:58:03.490Z,64.07
2018-07-25T08:00:32.212Z,64.23
2018-07-25T08:03:00.993Z,62.74
2018-07-25T08:05:30.063Z,62.95
2018-07-25T08:07:58.851Z,63.00
2018-07-25T08:10:27.948Z,62.42
2018-07-25T08:12:57.014Z,62.41
2018-07-25T08:15:26.295Z,62.36
2018-07-25T08:17:55.325Z,62.15
2018-07-25T08:20:24.446Z,61.87
2018-07-25T08:22:53.633Z,60.93
2018-07-25T08:25:22.392Z,60.60
2018-07-25T08:27:51.423Z,59.62
2018-07-25T08:30:20.191Z,58.29
2018-07-25T08:32:49.198Z,57.92
2018-07-25T08:35:17.928Z,57.25
2018-07-25T08:37:46.663Z,56.45
2018-07-25T08:40:15.738Z,57.14
2018-07-25T08:42:44.840Z,56.13
2018-07-25T08:45:14.118Z,57.08
2018-07-25T08:47:42.887Z,56.08
2018-07-25T08:50:11.938Z,55.86
2018-07-25T08:52:41.051Z,55.81
2018-07-25T08:55:10.065Z,56.42
2018-07-25T08:57:38.918Z,54.99
2018-07-25T09:00:07.853Z,54.14
2018-07-25T09:02:37.133Z,54.72
2018-07-25T09:05:05.875Z,53.96
2018-07-25T09:07:34.669Z,53.69
2018-07-25T09:10:03.437Z,53.22
2018-07-25T09:12:32.809Z,53.15
2018-07-25T09:15:01.851Z,52.78
2018-07-25T09:17:30.641Z,52.08
2018-07-25T09:19:59.426Z,51.49
2018-07-25T09:22:28.670Z,50.38
2018-07-25T09:24:57.754Z,50.17
2018-07-25T09:27:27.194Z,49.94
2018-07-25T09:29:56.182Z,49.21
2018-07-25T09:32:24.940Z,48.56
2018-07-25T09:34:54.007Z,48.57
2018-07-25T09:37:22.831Z,48.08
2018-07-25T09:39:51.578Z,47.73
2018-07-25T09:42:20.628Z,47.18
2018-07-25T09:44:49.686Z,48.15
2018-07-25T09:47:18.741Z,48.17
2018-07-25T09:49:48.362Z,47.63
2018-07-25T09:52:17.120Z,47.01
2018-07-25T09:54:46.484Z,47.36
2018-07-25T09:57:15.483Z,46.48
2018-07-25T09:59:44.477Z,45.22
2018-07-25T10:02:13.672Z,44.95
2018-07-25T10:04:42.630Z,44.48
2018-07-25T10:07:11.704Z,45.76
2018-07-25T10:09:40.601Z,45.19
2018-07-25T10:12:09.491Z,44.55
2018-07-25T10:14:38.371Z,44.88
2018-07-25T10:17:07.148Z,44.32
2018-07-25T10:19:36.002Z,44.46
2018-07-25T10:22:05.129Z,43.99
2018-07-25T10:24:33.921Z,43.31
2018-07-25T10:27:02.773Z,43.53
2018-07-25T10:29:32.057Z,43.35
2018-07-25T10:32:01.188Z,43.09
2018-07-25T10:34:29.954Z,42.24
2018-07-25T10:36:59.736Z,42.70
2018-07-25T10:44:54.486Z,42.28
2018-07-25T10:47:23.598Z,41.86
2018-07-25T10:49:53.001Z,41.83
2018-07-25T10:52:21.751Z,41.22
2018-07-25T10:54:51.116Z,41.64
2018-07-25T10:57:20.240Z,41.98
2018-07-25T10:59:51.178Z,40.96
2018-07-25T11:02:20.551Z,41.05
2018-07-25T11:04:50.569Z,40.41
2018-07-25T11:07:20.662Z,40.61
2018-07-25T11:09:49.983Z,39.50
2018-07-25T11:12:19.163Z,38.85
2018-07-25T11:14:48.402Z,39.11
2018-07-25T11:17:17.157Z,39.99
2018-07-25T11:19:46.065Z,40.33
2018-07-25T11:22:15.203Z,39.70
2018-07-25T11:24:43.978Z,38.70
2018-07-25T11:27:13.339Z,38.38
2018-07-25T11:29:43.524Z,38.64
2018-07-25T11:32:12.347Z,37.21
2018-07-25T11:34:41.878Z,37.19
2018-07-25T11:37:10.629Z,37.82
2018-07-25T11:39:39.365Z,37.15
2018-07-25T11:42:08.243Z,36.64
2018-07-25T11:44:37.525Z,36.36
2018-07-25T11:47:06.637Z,36.93
2018-07-25T11:49:35.707Z,35.89
2018-07-25T11:52:04.776Z,35.65
2018-07-25T11:54:33.773Z,34.77
2018-07-25T11:57:04.445Z,35.07
2018-07-25T11:59:33.393Z,35.03
2018-07-25T12:02:02.151Z,35.01
2018-07-25T12:04:31.265Z,34.57
2018-07-25T12:09:29.515Z,34.06
2018-07-25T12:11:58.318Z,34.63
2018-07-25T12:14:27.500Z,34.71
2018-07-25T12:16:56.275Z,33.54
2018-07-25T12:19:27.118Z,33.74
2018-07-25T12:21:56.513Z,33.56
2018-07-25T12:24:26.690Z,32.20
2018-07-25T12:26:56.629Z,32.69
2018-07-25T12:29:27.187Z,33.43
2018-07-25T12:31:57.619Z,33.50
2018-07-25T12:34:27.363Z,33.11
2018-07-25T12:36:56.228Z,33.23
2018-07-25T12:39:25.511Z,33.02
2018-07-25T12:41:56.457Z,32.22
2018-07-25T12:44:25.338Z,32.00
2018-07-25T12:46:54.587Z,31.90
2018-07-25T12:49:24.049Z,31.41
2018-07-25T12:51:52.805Z,31.68
2018-07-25T12:54:23.089Z,31.70
2018-07-25T12:56:53.135Z,32.81
2018-07-25T12:59:24.413Z,31.54
2018-07-25T13:01:53.656Z,32.35
2018-07-25T13:04:22.976Z,32.23
2018-07-25T13:06:52.099Z,31.57
2018-07-25T13:09:21.522Z,31.68
2018-07-25T13:11:50.832Z,31.58
2018-07-25T13:14:19.863Z,30.49
2018-07-25T13:16:48.617Z,30.33
2018-07-25T13:19:17.997Z,30.76
2018-07-25T13:21:47.138Z,30.84
2018-07-25T13:24:16.158Z,30.74
2018-07-25T13:26:45.282Z,29.89
2018-07-25T13:29:14.437Z,29.21
2018-07-25T13:31:44.064Z,29.88
2018-07-25T13:34:13.451Z,29.65
2018-07-25T13:36:42.261Z,29.83
2018-07-25T13:39:11.493Z,30.44
2018-07-25T13:41:40.844Z,29.24
2018-07-25T13:44:09.884Z,30.42
2018-07-25T13:46:39.510Z,30.55
2018-07-25T13:49:08.598Z,31.07
2018-07-25T13:51:37.831Z,30.53
2018-07-25T13:54:07.990Z,30.64
2018-07-25T13:56:37.425Z,30.26
2018-07-25T13:59:06.635Z,30.34
2018-07-25T14:01:35.536Z,30.04
2018-07-25T14:04:04.589Z,30.72
2018-07-25T14:06:34.960Z,30.83
2018-07-25T14:09:04.274Z,30.13
2018-07-25T14:11:33.460Z,29.24
2018-07-25T14:14:02.665Z,30.68
2018-07-25T14:16:31.444Z,29.67
2018-07-25T14:19:00.326Z,29.77
2018-07-25T14:21:30.055Z,29.63
2018-07-25T14:23:59.986Z,29.37
2018-07-25T14:26:28.889Z,29.06
2018-07-25T14:28:59.751Z,29.58
2018-07-25T14:31:29.088Z,29.14
2018-07-25T14:33:58.124Z,29.15
2018-07-25T14:36:27.267Z,29.08
2018-07-25T14:38:56.387Z,30.03
2018-07-25T14:41:25.456Z,30.38
2018-07-25T14:43:54.216Z,30.08
2018-07-25T14:46:23.910Z,30.54
2018-07-25T14:48:52.899Z,31.19
2018-07-25T14:51:21.757Z,30.91
2018-07-25T14:53:50.751Z,31.41
2018-07-25T14:56:19.887Z,30.82
2018-07-25T14:58:48.632Z,31.22
2018-07-25T15:01:17.435Z,31.20
2018-07-25T15:03:46.348Z,31.47
2018-07-25T15:06:15.476Z,31.47
2018-07-25T15:08:44.514Z,31.06
2018-07-25T15:11:14.146Z,30.90
2018-07-25T15:13:42.928Z,31.37
2018-07-25T15:16:12.020Z,32.16
2018-07-25T15:18:40.785Z,31.32
2018-07-25T15:21:09.756Z,31.54
2018-07-25T15:23:49.957Z,31.42
2018-07-25T15:26:18.676Z,32.39
2018-07-25T15:28:48.220Z,31.53
2018-07-25T15:31:17.204Z,31.59
2018-07-25T15:33:46.471Z,31.34
2018-07-25T15:36:26.851Z,31.99
2018-07-25T15:38:55.714Z,33.14
2018-07-25T15:41:24.959Z,32.59
2018-07-25T15:43:53.990Z,33.21
2018-07-25T15:46:23.242Z,32.92
2018-07-25T15:48:52.678Z,33.57
2018-07-25T15:51:21.672Z,33.95
2018-07-25T15:53:50.438Z,33.72
2018-07-25T15:56:20.140Z,34.34
2018-07-25T15:58:49.520Z,34.85
2018-07-25T16:01:18.645Z,34.64
2018-07-25T16:03:47.431Z,34.31
2018-07-25T16:06:16.465Z,34.05
2018-07-25T16:08:45.258Z,34.14
2018-07-25T16:11:16.482Z,33.87
2018-07-25T16:13:45.286Z,34.90
2018-07-25T16:16:16.383Z,34.95
2018-07-25T16:18:45.203Z,34.99
2018-07-25T16:21:14.320Z,34.73
2018-07-25T16:23:43.106Z,34.80
2018-07-25T16:26:13.165Z,35.37
2018-07-25T16:28:42.226Z,35.25
2018-07-25T16:31:12.621Z,34.49
2018-07-25T16:33:41.381Z,35.37
2018-07-25T16:36:12.102Z,35.62
2018-07-25T16:38:41.626Z,35.23
2018-07-25T16:41:10.405Z,35.79
2018-07-25T16:43:40.111Z,34.76
2018-07-25T16:46:09.449Z,35.18
2018-07-25T16:48:38.432Z,36.20
2018-07-25T16:51:07.787Z,35.22
2018-07-25T16:53:37.111Z,34.42
2018-07-25T16:56:06.568Z,34.44
2018-07-25T16:58:36.934Z,35.34
2018-07-25T17:01:05.748Z,35.45
2018-07-25T17:03:34.633Z,35.32
2018-07-25T17:06:03.438Z,35.30
2018-07-25T17:08:33.186Z,35.70
2018-07-25T17:11:02.029Z,36.49
2018-07-25T17:13:31.006Z,35.56
2018-07-25T17:15:59.953Z,36.55
2018-07-25T17:18:28.844Z,36.42
2018-07-25T17:20:57.602Z,36.35
2018-07-25T17:23:27.180Z,36.41
2018-07-25T17:25:56.332Z,35.64
2018-07-25T17:28:25.234Z,35.53
2018-07-25T17:30:54.423Z,35.36
2018-07-25T17:33:24.085Z,35.24
2018-07-25T17:35:53.400Z,36.12
2018-07-25T17:41:04.036Z,36.07
2018-07-25T17:43:33.273Z,36.50
2018-07-25T17:46:02.127Z,37.28
2018-07-25T17:48:34.111Z,37.21
2018-07-25T17:51:03.779Z,37.57
2018-07-25T17:53:33.061Z,38.25
2018-07-25T17:56:02.695Z,38.60
2018-07-25T17:58:32.127Z,38.06
2018-07-25T18:01:01.466Z,38.13
2018-07-25T18:03:31.681Z,38.78
2018-07-25T18:06:00.837Z,38.42
2018-07-25T18:08:29.715Z,39.09
2018-07-25T18:10:59.153Z,38.96
2018-07-25T18:13:33.345Z,39.02
2018-07-25T18:16:02.481Z,38.49
2018-07-25T18:18:31.286Z,38.38
2018-07-25T18:21:00.903Z,39.01
2018-07-25T18:23:30.265Z,39.06
2018-07-25T18:25:59.465Z,38.65
2018-07-25T18:28:28.562Z,39.79
2018-07-25T18:30:58.262Z,39.77
2018-07-25T18:33:27.917Z,39.64
2018-07-25T18:35:57.258Z,39.48
2018-07-25T18:38:26.060Z,40.34
2018-07-25T18:40:54.858Z,40.78
2018-07-25T18:43:24.161Z,41.02
2018-07-25T18:45:53.344Z,41.50
2018-07-25T18:48:22.103Z,41.66
2018-07-25T18:50:52.234Z,41.17
2018-07-25T18:53:29.474Z,41.55
2018-07-25T18:55:58.825Z,41.95
2018-07-25T18:58:27.995Z,41.64
2018-07-25T19:00:57.032Z,41.85
2018-07-25T19:03:25.833Z,41.59
2018-07-25T19:05:54.904Z,42.03
2018-07-25T19:08:23.915Z,41.58
2018-07-25T19:10:53.618Z,42.48
2018-07-25T19:13:27.984Z,42.54
2018-07-25T19:18:36.586Z,42.97
2018-07-25T19:21:09.209Z,43.42
2018-07-25T19:23:38.874Z,43.34
2018-07-25T19:26:07.591Z,43.00
2018-07-25T19:28:36.553Z,43.08
2018-07-25T19:31:10.656Z,43.73
2018-07-25T19:33:43.658Z,43.81
2018-07-25T19:36:12.727Z,43.70
2018-07-25T19:38:41.686Z,43.40
2018-07-25T19:41:11.121Z,43.39
2018-07-25T19:43:39.928Z,44.63
2018-07-25T19:46:09.141Z,44.92
2018-07-25T19:48:38.166Z,45.71
2018-07-25T19:51:07.259Z,45.48
2018-07-25T19:53:36.252Z,45.81
2018-07-25T19:56:05.036Z,45.90
2018-07-25T19:58:33.824Z,46.32
2018-07-25T20:01:02.600Z,47.90
2018-07-25T20:03:32.700Z,47.66
2018-07-25T20:06:01.815Z,49.33
2018-07-25T20:08:30.943Z,49.49
2018-07-25T20:11:00.272Z,49.83
2018-07-25T20:13:31.499Z,49.67
2018-07-25T20:16:01.693Z,51.06
2018-07-25T20:18:31.694Z,50.50
2018-07-25T20:21:00.552Z,51.43
2018-07-25T20:23:29.678Z,52.37
2018-07-25T20:25:58.659Z,52.47
2018-07-25T20:28:28.014Z,53.59
2018-07-25T20:30:56.996Z,53.96
2018-07-25T20:33:25.818Z,53.83
2018-07-25T20:35:55.185Z,53.75
2018-07-25T20:38:24.421Z,54.58
2018-07-25T20:40:53.200Z,55.09
2018-07-25T20:43:22.960Z,54.59
2018-07-25T20:45:51.686Z,55.28
2018-07-25T20:48:21.847Z,55.41
2018-07-25T20:50:52.205Z,55.47
2018-07-25T20:53:21.231Z,55.62
2018-07-25T20:55:50.466Z,55.91
2018-07-25T20:58:19.265Z,56.60
2018-07-25T21:00:48.114Z,56.82
2018-07-25T21:03:16.873Z,56.19
2018-07-25T21:05:46.181Z,56.60
2018-07-25T21:08:15.157Z,57.27
2018-07-25T21:10:44.312Z,57.73
2018-07-25T21:13:13.149Z,58.10
2018-07-25T21:15:43.389Z,58.11
2018-07-25T21:18:12.202Z,59.16
2018-07-25T21:20:40.979Z,59.65
2018-07-25T21:23:09.724Z,59.29
2018-07-25T21:25:38.796Z,60.13
2018-07-25T21:28:07.880Z,59.82
2018-07-25T21:30:36.626Z,59.66
2018-07-25T21:33:05.941Z,60.28
2018-07-25T21:35:35.133Z,60.79
2018-07-25T21:38:05.185Z,60.65
2018-07-25T21:40:33.903Z,61.23
2018-07-25T21:43:02.673Z,61.42
2018-07-25T21:45:31.470Z,61.35
2018-07-25T21:48:00.906Z,61.77
2018-07-25T21:50:29.633Z,62.87
2018-07-25T21:52:58.727Z,62.95
2018-07-25T21:55:28.033Z,63.45
2018-07-25T21:57:57.111Z,63.82
2018-07-25T22:00:26.463Z,63.47
2018-07-25T22:02:55.631Z,64.32
2018-07-25T22:05:25.027Z,64.81
2018-07-25T22:07:54.121Z,64.93
2018-07-25T22:10:26.393Z,65.47
2018-07-25T22:12:56.029Z,66.24
2018-07-25T22:15:25.349Z,65.45
2018-07-25T22:17:54.455Z,65.96
2018-07-25T22:20:23.799Z,66.20
2018-07-25T22:22:53.743Z,67.31
2018-07-25T22:25:22.525Z,67.54
2018-07-25T22:27:51.492Z,67.42
2018-07-25T22:30:20.259Z,68.14
2018-07-25T22:32:49.343Z,68.71
2018-07-25T22:35:18.427Z,69.00
2018-07-25T22:37:47.174Z,68.56
2018-07-25T22:40:16.006Z,69.32
2018-07-25T22:42:45.684Z,69.20
2018-07-25T22:45:15.443Z,69.40
2018-07-25T22:47:45.455Z,69.02
2018-07-25T22:50:15.152Z,69.32
2018-07-25T22:52:44.794Z,70.24
2018-07-25T22:55:14.412Z,70.22
2018-07-25T22:57:43.568Z,69.72
2018-07-25T23:00:13.330Z,70.38
2018-07-25T23:02:42.061Z,70.72
2018-07-25T23:05:10.792Z,70.70
2018-07-25T23:07:39.554Z,70.47
2018-07-25T23:10:08.356Z,70.79
2018-07-25T23:12:37.448Z,70.81
2018-07-25T23:15:06.638Z,71.43
2018-07-25T23:17:35.881Z,71.73
2018-07-25T23:20:04.900Z,72.34
2018-07-25T23:22:44.391Z,71.99
2018-07-25T23:25:13.462Z,72.07
2018-07-25T23:27:42.759Z,72.82
2018-07-25T23:30:11.899Z,72.92
2018-07-25T23:32:41.905Z,73.03
2018-07-25T23:35:11.352Z,73.05
2018-07-25T23:37:40.477Z,74.24
2018-07-25T23:40:09.327Z,74.84
2018-07-25T23:42:38.737Z,75.62
2018-07-25T23:45:07.578Z,75.05
2018-07-25T23:47:36.350Z,75.08
2018-07-25T23:50:05.327Z,75.29
2018-07-25T23:52:34.616Z,76.40
2018-07-25T23:55:03.378Z,76.64
2018-07-25T23:57:32.123Z,76.83
